Don's Testing Zone


Current Conditions
weather data
source:

National Weather Service
Light Drizzle Little Rock, AR
Light Drizzle, 48°F
Sunday, November 18, 2018 6:42 PM CST
Temperature: 48°F/9°C
Humidity: 100%
Barometer: 30.15in/1021.2mb Barometer Steady
Wind: N at 8mph/13kmh
View other cities:
Searcy | Little Rock | Hot Springs | Russellville | More...
Astronomical Conditions (Clear Sky Clock)
Searcy Clear Sky Clock
Find more weather in Little Rock, AR
    

Radar Images

NWS
    Wx Underground

KARK
   

Solar-Terrestrial Data

NWS METAR weather data

ADDS - METARS form results





Aviation Digital Data Service (ADDS) Output produced by METARs form (0045 UTC 19 November 2018) found at http://www.aviationweather.gov/metar/data/ 

KLIT 190042Z 34007KT 2SM -DZ BR OVC005 09/09 A3015 RMK AO2 P0001 T00940089

KLIT 190034Z 33008KT 1SM -DZ BR BKN005 OVC010 10/09 A3015 RMK AO2 CIG 003V008 P0001 T01000089 RVRNO

KLIT 182353Z 31008KT 1SM -DZ BR OVC007 10/09 A3015 RMK AO2 CIG 004V010 SLP212 P0000 60001 T01000094 10133 20100 53007 RVRNO

KLIT 182342Z 32008KT 1 1/2SM -DZ BR OVC005 11/09 A3014 RMK AO2 P0000 T01060094

KLIT 182253Z 23005KT 3SM -DZ BR OVC006 12/11 A3013 RMK AO2 DZB51 SLP206 P0000 T01220111

KLIT 182153Z 21006KT 6SM BR OVC006 12/11 A3013 RMK AO2 SLP204 T01220111

KLIT 182053Z 21005KT 6SM BR OVC009 13/12 A3013 RMK AO2 RAE10 SLP204 P0001 60001 T01280117 56020

KLIT 181953Z 17004KT 5SM -RA BR OVC009 13/11 A3014 RMK AO2 RAB21 SLP209 P0000 T01280111

KLIT 181922Z 18005KT 10SM -RA OVC009 13/11 A3014 RMK AO2 RAB21 P0000 T01280106

KLIT 181853Z 17004KT 10SM OVC012 13/11 A3015 RMK AO2 SLP213 T01330106

KLIT 181753Z 19005KT 10SM BKN011 OVC040 13/10 A3019 RMK AO2 RAE03 SLP224 BINOVC P0000 60000 T01280100 10133 20050 58010

KLIT 181703Z 23004KT 10SM OVC014 13/10 A3020 RMK AO2 RAE03 P0000 T01280100

KLIT 181653Z 21006KT 10SM -RA SCT014 BKN050 OVC100 13/10 A3021 RMK AO2 RAB25 SLP231 P0000 T01280100

KLIT 181553Z COR 27004KT 10SM FEW025 BKN090 BKN250 13/09 A3022 RMK AO2 SLP235 T01280089

KLIT 181453Z 00000KT 10SM FEW025 BKN060 BKN100 BKN250 11/08 A3022 RMK AO2 SLP234 BKN060 V SCT T01110078 51010

KLIT 181353Z 00000KT 10SM FEW040 SCT120 BKN250 08/07 A3022 RMK AO2 SLP234 T00780067

KLIT 181253Z 16003KT 10SM FEW060 SCT120 BKN250 06/05 A3020 RMK AO2 SLP228 T00610050

KLIT 181153Z 14003KT 10SM FEW055 SCT120 BKN250 06/06 A3019 RMK AO2 SLP224 T00610056 10094 20061 53006

KLIT 181053Z 00000KT 10SM FEW050 BKN250 07/05 A3017 RMK AO2 SLP220 T00670050

KLIT 180953Z 10003KT 10SM FEW055 BKN250 08/06 A3017 RMK AO2 SLP219 T00780056

KLIT 180853Z 22005KT 10SM FEW060 BKN250 08/06 A3017 RMK AO2 SLP217 T00830056 53004

KLIT 180753Z 00000KT 10SM FEW060 OVC250 09/06 A3017 RMK AO2 SLP216 T00890061

KLIT 180653Z 00000KT 10SM SCT120 OVC250 08/06 A3015 RMK AO2 SLP213 T00830056

KLIT 180553Z 11004KT 10SM FEW120 BKN250 08/06 A3016 RMK AO2 SLP214 T00830061 10133 20083 402000000 50001

KLIT 180453Z 17004KT 10SM FEW120 FEW250 09/06 A3016 RMK AO2 SLP216 T00890061

KLIT 180353Z 16004KT 10SM FEW048 FEW250 09/06 A3016 RMK AO2 SLP217 T00940061

KLIT 180253Z 17009KT 10SM SCT048 SCT250 11/07 A3015 RMK AO2 SLP213 T01060067 53009

KLIT 180153Z 17007KT 10SM SCT050 SCT250 11/07 A3014 RMK AO2 SLP210 T01110067

KLIT 180053Z 17006KT 10SM BKN050 BKN250 12/07 A3013 RMK AO2 SLP207 T01170072 KLIT 182348Z 1900/1924 23005KT 3SM -DZ BR VCSH OVC006 TEMPO 1900/1904 1 1/2SM -DZ BR OVC005 FM190400 VRB04KT 1SM BR OVC005 TEMPO 1909/1913 1/2SM FG BKN002 FM191300 30004KT 5SM BR SCT005 BKN015 FM192100 30007KT P6SM SCT250